Time;durP1;ratioP1;P1;durP2;ratioP2;P2;SDS_P1;SDS_P2;PMS_P1;PMS_P2;Temp;Humidity;BMP_temperature;BMP_pressure;BME280_temperature;BME280_humidity;BME280_pressure;Samples;Min_cycle;Max_cycle;Signal;HPM_P1;HPM_P2
2021/09/02 00:01:15;;;;;;;;;27.00;19.00;;;;;;;;4991920;28;45468;-80
2021/09/02 00:03:40;;;;;;;;;23.33;16.00;;;;;;;;5010781;28;45225;-81
2021/09/02 00:06:06;;;;;;;;;17.33;14.00;;;;;;;;5010052;28;45476;-81
2021/09/02 00:08:31;;;;;;;;;17.33;14.33;;;;;;;;5011643;28;45865;-80
2021/09/02 00:10:56;;;;;;;;;15.67;13.67;;;;;;;;5010834;28;45479;-81
2021/09/02 00:13:21;;;;;;;;;16.00;15.00;;;;;;;;5009361;28;45521;-81
2021/09/02 00:15:46;;;;;;;;;19.00;18.00;;;;;;;;5013585;28;46121;-80
2021/09/02 00:18:12;;;;;;;;;20.75;17.00;;;;;;;;5006273;28;45428;-80
2021/09/02 00:20:37;;;;;;;;;19.00;16.00;;;;;;;;4991890;28;45570;-81
2021/09/02 00:23:02;;;;;;;;;18.75;16.25;;;;;;;;4995938;28;45563;-80
2021/09/02 00:25:27;;;;;;;;;17.00;15.00;;;;;;;;5006194;28;45478;-81
2021/09/02 00:27:53;;;;;;;;;23.75;19.25;;;;;;;;5021642;28;45380;-81
2021/09/02 00:30:18;;;;;;;;;19.50;16.00;;;;;;;;4995225;28;45985;-81
2021/09/02 00:32:44;;;;;;;;;20.75;17.00;;;;;;;;4995276;28;45757;-80
2021/09/02 00:35:10;;;;;;;;;18.75;16.00;;;;;;;;5013763;28;45446;-81
2021/09/02 00:37:35;;;;;;;;;18.75;14.50;;;;;;;;4992119;28;45829;-81
2021/09/02 00:40:00;;;;;;;;;19.00;17.00;;;;;;;;5020792;28;45314;-81
2021/09/02 00:42:25;;;;;;;;;24.50;17.50;;;;;;;;5019886;28;45423;-81
2021/09/02 00:44:51;;;;;;;;;18.67;13.33;;;;;;;;5020863;28;46213;-81
2021/09/02 00:47:17;;;;;;;;;18.75;15.00;;;;;;;;5022736;28;45510;-81
2021/09/02 00:49:43;;;;;;;;;16.00;14.00;;;;;;;;5013568;28;45431;-81
2021/09/02 00:52:13;;;;;;;;;20.00;18.00;;;;;;;;5014745;28;45485;-81
2021/09/02 00:54:46;;;;;;;;;25.00;16.50;;;;;;;;5016170;28;47288;-81
2021/09/02 00:57:11;;;;;;;;;17.25;17.25;;;;;;;;5015804;28;45920;-81
2021/09/02 00:59:37;;;;;;;;;21.00;17.00;;;;;;;;5006032;28;45593;-81
2021/09/02 01:02:03;;;;;;;;;21.00;17.75;;;;;;;;5008172;28;45436;-80
2021/09/02 01:04:28;;;;;;;;;17.00;16.25;;;;;;;;5016170;28;45861;-80
2021/09/02 01:06:53;;;;;;;;;21.33;17.00;;;;;;;;5009135;28;45289;-81
2021/09/02 01:09:18;;;;;;;;;15.25;12.25;;;;;;;;5016793;28;45515;-81
2021/09/02 01:11:44;;;;;;;;;19.33;18.00;;;;;;;;5015027;28;45344;-81
2021/09/02 01:14:17;;;;;;;;;17.25;15.00;;;;;;;;5012391;28;47668;-80
2021/09/02 01:16:43;;;;;;;;;19.50;16.50;;;;;;;;4997718;28;45581;-81
2021/09/02 01:19:09;;;;;;;;;19.00;15.75;;;;;;;;5015915;28;45477;-80
2021/09/02 01:21:34;;;;;;;;;21.00;18.00;;;;;;;;5015363;28;45609;-80
2021/09/02 01:23:59;;;;;;;;;14.33;12.00;;;;;;;;4987071;28;47256;-80
2021/09/02 01:26:24;;;;;;;;;15.67;13.33;;;;;;;;5016785;28;45512;-81
2021/09/02 01:28:50;;;;;;;;;23.25;18.00;;;;;;;;5017478;28;45396;-80
2021/09/02 01:31:18;;;;;;;;;20.25;19.00;;;;;;;;5015342;28;45447;-80
2021/09/02 01:33:46;;;;;;;;;21.00;18.75;;;;;;;;4991353;28;47534;-80
2021/09/02 01:36:11;;;;;;;;;24.75;20.25;;;;;;;;5013662;28;45523;-80
2021/09/02 01:38:37;;;;;;;;;23.00;20.25;;;;;;;;5014371;28;45994;-81
2021/09/02 01:41:02;;;;;;;;;23.50;23.25;;;;;;;;5010333;28;45578;-80
2021/09/02 01:43:27;;;;;;;;;22.00;17.67;;;;;;;;5014852;28;46529;-80
2021/09/02 01:45:53;;;;;;;;;19.00;16.00;;;;;;;;5004247;28;45376;-81
2021/09/02 01:48:18;;;;;;;;;22.50;17.25;;;;;;;;5010733;28;45442;-80
2021/09/02 01:50:43;;;;;;;;;19.33;16.67;;;;;;;;4997782;28;45569;-80
2021/09/02 01:53:10;;;;;;;;;21.75;17.75;;;;;;;;5010888;28;45417;-80
2021/09/02 01:55:35;;;;;;;;;23.25;16.25;;;;;;;;5007723;28;45549;-81
2021/09/02 01:58:01;;;;;;;;;20.50;18.50;;;;;;;;5010900;28;45452;-80
2021/09/02 02:00:26;;;;;;;;;22.50;18.50;;;;;;;;4985360;28;45947;-80
2021/09/02 02:02:52;;;;;;;;;18.33;15.33;;;;;;;;5012272;28;45494;-80
2021/09/02 02:05:17;;;;;;;;;20.75;14.25;;;;;;;;5015092;28;45447;-80
2021/09/02 02:07:42;;;;;;;;;21.25;18.50;;;;;;;;5014159;28;45331;-80
2021/09/02 02:10:10;;;;;;;;;18.00;16.50;;;;;;;;5011958;28;45423;-80
2021/09/02 02:12:35;;;;;;;;;17.00;14.50;;;;;;;;5019165;28;45561;-81
2021/09/02 02:15:00;;;;;;;;;20.75;18.00;;;;;;;;5014322;28;45466;-81
2021/09/02 02:17:26;;;;;;;;;25.50;17.50;;;;;;;;5015084;28;45235;-80
2021/09/02 02:19:51;;;;;;;;;20.00;17.00;;;;;;;;5017471;28;45478;-81
2021/09/02 02:22:16;;;;;;;;;25.67;17.00;;;;;;;;5010556;28;46194;-81
2021/09/02 02:24:41;;;;;;;;;18.00;16.00;;;;;;;;5010599;28;45421;-81
2021/09/02 02:27:07;;;;;;;;;20.75;16.75;;;;;;;;5013774;28;45549;-81
2021/09/02 02:29:32;;;;;;;;;22.00;18.25;;;;;;;;4986843;28;45918;-81
2021/09/02 02:31:57;;;;;;;;;21.67;19.00;;;;;;;;5013070;28;46458;-80
2021/09/02 02:34:22;;;;;;;;;18.33;16.67;;;;;;;;5015397;28;45456;-80
2021/09/02 02:36:48;;;;;;;;;22.33;17.00;;;;;;;;5012032;28;45463;-80
2021/09/02 02:39:13;;;;;;;;;20.33;16.33;;;;;;;;4992367;28;45565;-81
2021/09/02 02:41:38;;;;;;;;;19.75;17.50;;;;;;;;5007596;28;46215;-81
2021/09/02 02:44:04;;;;;;;;;19.50;16.75;;;;;;;;5005797;28;45509;-80
2021/09/02 02:46:29;;;;;;;;;21.50;19.75;;;;;;;;5008907;28;45447;-80
2021/09/02 02:48:55;;;;;;;;;24.75;21.00;;;;;;;;5012172;28;45301;-80
2021/09/02 02:51:20;;;;;;;;;25.25;18.75;;;;;;;;5007841;28;45372;-80
2021/09/02 02:53:45;;;;;;;;;24.00;20.00;;;;;;;;5011458;28;45352;-80
2021/09/02 02:56:10;;;;;;;;;17.33;15.33;;;;;;;;5015840;28;45419;-80
2021/09/02 02:58:35;;;;;;;;;26.75;19.75;;;;;;;;4995446;28;45594;-80
2021/09/02 03:01:01;;;;;;;;;27.33;19.33;;;;;;;;5014179;28;46554;-81
2021/09/02 03:03:26;;;;;;;;;24.00;17.00;;;;;;;;5005715;28;45460;-81
2021/09/02 03:05:51;;;;;;;;;29.00;20.33;;;;;;;;5015381;28;45367;-81
2021/09/02 03:08:16;;;;;;;;;25.00;20.00;;;;;;;;5014521;28;45313;-81
2021/09/02 03:10:42;;;;;;;;;20.67;19.33;;;;;;;;5014747;28;45315;-81
2021/09/02 03:13:07;;;;;;;;;23.75;18.50;;;;;;;;5011718;28;45329;-80
2021/09/02 03:15:33;;;;;;;;;25.33;17.67;;;;;;;;5007005;28;45385;-81
2021/09/02 03:17:58;;;;;;;;;22.50;19.50;;;;;;;;4996485;28;45898;-81
2021/09/02 03:20:23;;;;;;;;;15.00;13.50;;;;;;;;5012087;28;46411;-81
2021/09/02 03:22:49;;;;;;;;;24.00;15.75;;;;;;;;5006136;28;45464;-80
2021/09/02 03:25:14;;;;;;;;;20.75;17.50;;;;;;;;4987401;28;45295;-81
2021/09/02 03:27:39;;;;;;;;;21.25;18.75;;;;;;;;5015260;28;45627;-81
2021/09/02 03:30:05;;;;;;;;;26.25;22.25;;;;;;;;5004325;28;45914;-80
2021/09/02 03:32:30;;;;;;;;;25.25;21.00;;;;;;;;5013231;28;45372;-80
2021/09/02 03:34:56;;;;;;;;;24.00;21.75;;;;;;;;4987162;28;45249;-80
2021/09/02 03:37:21;;;;;;;;;26.67;20.00;;;;;;;;5007839;28;45289;-80
2021/09/02 03:39:46;;;;;;;;;19.67;17.00;;;;;;;;5010638;28;45551;-80
2021/09/02 03:42:11;;;;;;;;;29.00;16.67;;;;;;;;5002207;28;45965;-80
2021/09/02 03:44:36;;;;;;;;;29.33;23.00;;;;;;;;4988879;28;45344;-80
2021/09/02 03:47:02;;;;;;;;;15.67;15.00;;;;;;;;5010421;28;45598;-80
2021/09/02 03:49:27;;;;;;;;;27.00;21.33;;;;;;;;5001618;28;46291;-81
2021/09/02 03:51:52;;;;;;;;;27.00;21.00;;;;;;;;5010678;28;45511;-80
2021/09/02 03:54:17;;;;;;;;;23.67;20.33;;;;;;;;5007000;28;45504;-81
2021/09/02 03:56:42;;;;;;;;;30.67;24.00;;;;;;;;4985512;28;45878;-81
2021/09/02 03:59:08;;;;;;;;;23.00;17.00;;;;;;;;5006376;28;46513;-81
2021/09/02 04:01:33;;;;;;;;;25.33;22.00;;;;;;;;5011032;28;45416;-80
2021/09/02 04:03:58;;;;;;;;;24.00;20.33;;;;;;;;5021489;28;45221;-80
2021/09/02 04:06:23;;;;;;;;;27.50;23.00;;;;;;;;5013076;28;45440;-80
2021/09/02 04:08:50;;;;;;;;;24.25;20.00;;;;;;;;5010836;28;45402;-80
2021/09/02 04:11:15;;;;;;;;;27.25;21.75;;;;;;;;5012393;28;45380;-80
2021/09/02 04:13:41;;;;;;;;;23.75;19.00;;;;;;;;5011217;28;45463;-80
2021/09/02 04:16:06;;;;;;;;;27.75;21.75;;;;;;;;5009693;28;45439;-80
2021/09/02 04:18:31;;;;;;;;;29.00;19.33;;;;;;;;5014257;28;45377;-80
2021/09/02 04:20:57;;;;;;;;;24.50;17.00;;;;;;;;5000698;28;46205;-80
2021/09/02 04:23:22;;;;;;;;;28.75;20.50;;;;;;;;5011860;28;45386;-80
2021/09/02 04:25:47;;;;;;;;;27.75;20.00;;;;;;;;5008309;28;45934;-80
2021/09/02 04:28:13;;;;;;;;;26.33;21.00;;;;;;;;4998627;28;46188;-80
2021/09/02 04:30:38;;;;;;;;;30.67;21.33;;;;;;;;4998673;28;45850;-80
2021/09/02 04:33:03;;;;;;;;;31.33;24.00;;;;;;;;5013345;28;45580;-80
2021/09/02 04:35:29;;;;;;;;;27.33;23.00;;;;;;;;5016612;28;45649;-81
2021/09/02 04:37:54;;;;;;;;;26.25;23.00;;;;;;;;4999087;28;46146;-80
2021/09/02 04:40:19;;;;;;;;;30.50;22.75;;;;;;;;5011114;28;45426;-80
2021/09/02 04:42:45;;;;;;;;;30.75;20.75;;;;;;;;5014464;28;45345;-80
2021/09/02 04:45:10;;;;;;;;;26.75;18.25;;;;;;;;5007673;28;45548;-81
2021/09/02 04:47:36;;;;;;;;;29.00;21.75;;;;;;;;4991300;28;45972;-81
2021/09/02 04:50:02;;;;;;;;;27.00;20.25;;;;;;;;5013103;28;45422;-80
2021/09/02 04:52:27;;;;;;;;;29.75;23.50;;;;;;;;5018327;28;45494;-80
2021/09/02 04:54:52;;;;;;;;;25.33;16.67;;;;;;;;5005507;28;45382;-80
2021/09/02 04:57:19;;;;;;;;;39.67;26.67;;;;;;;;5012410;28;45436;-80
2021/09/02 04:59:45;;;;;;;;;29.25;24.25;;;;;;;;5004250;28;45474;-80
2021/09/02 05:02:10;;;;;;;;;27.75;23.25;;;;;;;;5009683;28;45396;-80
2021/09/02 05:04:35;;;;;;;;;30.50;21.75;;;;;;;;5013360;28;45501;-80
2021/09/02 05:07:00;;;;;;;;;32.00;24.33;;;;;;;;4997915;28;46306;-81
2021/09/02 05:09:26;;;;;;;;;13.67;5.00;;;;;;;;5004000;28;45261;-80
2021/09/02 05:11:51;;;;;;;;;31.00;25.67;;;;;;;;5012931;28;45501;-81
2021/09/02 05:14:16;;;;;;;;;32.00;25.33;;;;;;;;5017614;28;45531;-80
2021/09/02 05:16:41;;;;;;;;;26.67;25.00;;;;;;;;4998561;28;47974;-80
2021/09/02 05:19:07;;;;;;;;;26.50;21.75;;;;;;;;5020634;28;45342;-81
2021/09/02 05:21:32;;;;;;;;;29.00;23.00;;;;;;;;4994940;28;45389;-81
2021/09/02 05:23:57;;;;;;;;;30.00;24.00;;;;;;;;5019604;28;45534;-81
2021/09/02 05:26:22;;;;;;;;;30.67;23.33;;;;;;;;4997387;28;46936;-80
2021/09/02 05:28:47;;;;;;;;;31.67;25.00;;;;;;;;4990522;28;45567;-80
2021/09/02 05:31:13;;;;;;;;;31.00;23.00;;;;;;;;5014821;28;45598;-80
2021/09/02 05:33:38;;;;;;;;;27.33;24.00;;;;;;;;5014820;28;45569;-81
2021/09/02 05:36:03;;;;;;;;;29.67;24.33;;;;;;;;5015475;28;45639;-80
2021/09/02 05:38:29;;;;;;;;;35.25;24.75;;;;;;;;5014635;28;45403;-80
2021/09/02 05:40:54;;;;;;;;;32.25;25.25;;;;;;;;4994822;28;45445;-81
2021/09/02 05:43:19;;;;;;;;;31.67;24.67;;;;;;;;5001800;28;45311;-80
2021/09/02 05:45:45;;;;;;;;;37.75;25.50;;;;;;;;5008603;28;45637;-80
2021/09/02 05:48:10;;;;;;;;;33.33;25.00;;;;;;;;5014199;28;45308;-80
2021/09/02 05:50:35;;;;;;;;;29.75;24.00;;;;;;;;5018298;28;45381;-81
2021/09/02 05:53:01;;;;;;;;;29.00;23.50;;;;;;;;5014868;28;45217;-81
2021/09/02 05:55:26;;;;;;;;;31.75;27.00;;;;;;;;5008492;28;45326;-81
2021/09/02 05:57:51;;;;;;;;;30.50;25.50;;;;;;;;5015021;28;45352;-81
2021/09/02 06:00:17;;;;;;;;;28.67;23.67;;;;;;;;5013182;28;45223;-80
2021/09/02 06:02:42;;;;;;;;;40.00;31.50;;;;;;;;5009190;28;45576;-81
2021/09/02 06:05:08;;;;;;;;;33.33;28.00;;;;;;;;5001079;28;48433;-81
2021/09/02 06:07:33;;;;;;;;;37.25;29.50;;;;;;;;5012796;28;45674;-81
2021/09/02 06:09:58;;;;;;;;;28.67;24.33;;;;;;;;5014768;28;45853;-81
2021/09/02 06:12:23;;;;;;;;;31.25;26.00;;;;;;;;5011305;28;45710;-81
2021/09/02 06:14:48;;;;;;;;;36.33;31.33;;;;;;;;5004632;28;45519;-80
2021/09/02 06:17:14;;;;;;;;;35.33;25.00;;;;;;;;5013910;28;45444;-81
2021/09/02 06:19:39;;;;;;;;;29.50;26.50;;;;;;;;5014909;28;45644;-81
2021/09/02 06:22:04;;;;;;;;;36.33;28.33;;;;;;;;5014396;28;45774;-81
2021/09/02 06:24:29;;;;;;;;;36.00;29.25;;;;;;;;5008175;28;45601;-81
2021/09/02 06:26:55;;;;;;;;;28.00;25.50;;;;;;;;5009154;28;45448;-82
2021/09/02 06:29:20;;;;;;;;;36.33;27.33;;;;;;;;4991815;28;45874;-79
2021/09/02 06:31:45;;;;;;;;;35.75;24.75;;;;;;;;5014728;28;45487;-82
2021/09/02 06:34:10;;;;;;;;;34.75;28.25;;;;;;;;5012886;28;45384;-84
2021/09/02 06:36:36;;;;;;;;;35.33;30.00;;;;;;;;5010083;28;45996;-85
2021/09/02 06:39:01;;;;;;;;;35.00;27.50;;;;;;;;4995453;28;45486;-86
2021/09/02 06:41:26;;;;;;;;;44.67;31.00;;;;;;;;5011778;28;45498;-84
2021/09/02 06:43:51;;;;;;;;;37.67;30.67;;;;;;;;5007927;28;45470;-82
2021/09/02 06:46:17;;;;;;;;;35.00;28.33;;;;;;;;5008837;28;45515;-83
2021/09/02 06:48:42;;;;;;;;;34.00;28.00;;;;;;;;4987490;28;45463;-85
2021/09/02 06:51:07;;;;;;;;;42.67;29.33;;;;;;;;4992262;28;45421;-83
2021/09/02 06:53:32;;;;;;;;;31.67;26.00;;;;;;;;5015066;28;46054;-83
2021/09/02 06:55:58;;;;;;;;;29.00;26.75;;;;;;;;5012610;28;45357;-82
2021/09/02 06:58:23;;;;;;;;;35.33;29.00;;;;;;;;5010753;28;45906;-85
2021/09/02 07:00:48;;;;;;;;;35.50;28.75;;;;;;;;5014548;28;45628;-89
2021/09/02 07:03:13;;;;;;;;;27.75;25.00;;;;;;;;4992186;28;46930;-88
2021/09/02 07:05:39;;;;;;;;;33.67;25.67;;;;;;;;5021261;28;45246;-89
2021/09/02 07:08:04;;;;;;;;;36.67;28.00;;;;;;;;5003585;28;45459;-89
2021/09/02 07:10:29;;;;;;;;;37.75;30.25;;;;;;;;4998535;28;45396;-89
2021/09/02 07:12:55;;;;;;;;;37.67;28.33;;;;;;;;5017888;28;45300;-88
2021/09/02 07:15:20;;;;;;;;;33.75;27.50;;;;;;;;5007689;28;45235;-88
2021/09/02 07:17:45;;;;;;;;;32.67;27.33;;;;;;;;5048487;22;44766;-89
2021/09/02 07:20:11;;;;;;;;;34.00;28.75;;;;;;;;5032210;28;45405;-89
2021/09/02 07:22:36;;;;;;;;;35.50;29.50;;;;;;;;5022856;28;45269;-91
2021/09/02 07:25:01;;;;;;;;;37.50;29.00;;;;;;;;4999845;28;45013;-89
2021/09/02 07:27:27;;;;;;;;;37.50;29.00;;;;;;;;5004924;28;45538;-89
2021/09/02 07:29:52;;;;;;;;;37.33;25.67;;;;;;;;5003384;28;46141;-91
2021/09/02 07:32:17;;;;;;;;;37.67;25.00;;;;;;;;5001105;28;47371;-89
2021/09/02 07:34:43;;;;;;;;;31.50;25.25;;;;;;;;5003234;28;45499;-88
2021/09/02 07:37:09;;;;;;;;;35.75;29.75;;;;;;;;5019204;28;45431;-90
2021/09/02 07:39:37;;;;;;;;;43.00;30.25;;;;;;;;5016647;28;46536;-89
2021/09/02 07:42:02;;;;;;;;;36.00;26.25;;;;;;;;4998492;28;48198;-90
2021/09/02 07:44:27;;;;;;;;;36.50;26.75;;;;;;;;5022690;28;45410;-88
2021/09/02 07:46:52;;;;;;;;;30.50;25.25;;;;;;;;5004717;28;45471;-90
2021/09/02 07:49:18;;;;;;;;;37.67;27.00;;;;;;;;5022204;28;45398;-88
2021/09/02 07:51:43;;;;;;;;;29.67;25.33;;;;;;;;5002904;28;48112;-89
2021/09/02 07:54:08;;;;;;;;;32.50;26.25;;;;;;;;5018566;28;45683;-89
2021/09/02 07:56:34;;;;;;;;;34.00;27.75;;;;;;;;5018279;28;45404;-91
2021/09/02 07:59:01;;;;;;;;;31.00;26.50;;;;;;;;5005470;28;45683;-89
2021/09/02 08:01:26;;;;;;;;;33.75;27.25;;;;;;;;5004074;28;47005;-90
2021/09/02 08:03:51;;;;;;;;;32.33;28.67;;;;;;;;5004936;28;46034;-89
2021/09/02 08:06:17;;;;;;;;;32.67;28.33;;;;;;;;5006919;28;45475;-89
2021/09/02 08:08:42;;;;;;;;;30.25;25.75;;;;;;;;5019501;28;45523;-90
2021/09/02 08:11:07;;;;;;;;;35.33;27.33;;;;;;;;4987274;28;48345;-90
2021/09/02 08:13:32;;;;;;;;;35.00;28.33;;;;;;;;5019303;28;45421;-90
2021/09/02 08:15:58;;;;;;;;;35.00;28.67;;;;;;;;5005307;28;45351;-90
2021/09/02 08:18:23;;;;;;;;;37.00;28.25;;;;;;;;5026144;28;45393;-92
2021/09/02 08:20:49;;;;;;;;;37.75;30.25;;;;;;;;5006336;28;46980;-92
2021/09/02 08:23:14;;;;;;;;;31.25;27.25;;;;;;;;5006845;28;45649;-91
2021/09/02 08:25:39;;;;;;;;;38.00;29.00;;;;;;;;5003814;28;46450;-91
2021/09/02 08:28:09;;;;;;;;;37.25;30.75;;;;;;;;5022964;28;45372;-91
2021/09/02 08:30:34;;;;;;;;;39.75;30.25;;;;;;;;4984741;28;47529;-91
2021/09/02 08:33:00;;;;;;;;;36.25;29.25;;;;;;;;5010886;28;45597;-92
2021/09/02 08:35:27;;;;;;;;;36.75;30.00;;;;;;;;5008955;28;45601;-92
2021/09/02 08:37:53;;;;;;;;;34.75;30.00;;;;;;;;5004379;28;45446;-91
2021/09/02 08:40:20;;;;;;;;;29.50;26.00;;;;;;;;5003678;28;48187;-91
2021/09/02 08:42:46;;;;;;;;;43.00;30.75;;;;;;;;5001510;28;45289;-91
2021/09/02 08:45:12;;;;;;;;;31.25;29.00;;;;;;;;5021710;28;47075;-91
2021/09/02 08:47:37;;;;;;;;;36.75;29.75;;;;;;;;5022107;28;45223;-92
2021/09/02 08:50:04;;;;;;;;;31.75;29.50;;;;;;;;5000028;28;47382;-92
2021/09/02 08:52:30;;;;;;;;;34.25;28.00;;;;;;;;5005368;28;45915;-92
2021/09/02 08:54:55;;;;;;;;;29.50;24.75;;;;;;;;5004031;28;45404;-92
2021/09/02 08:57:20;;;;;;;;;34.25;30.00;;;;;;;;4994839;28;45667;-91
2021/09/02 08:59:46;;;;;;;;;28.25;26.00;;;;;;;;4993522;28;48067;-91
2021/09/02 09:02:21;;;;;;;;;38.67;31.67;;;;;;;;5004702;28;45510;-91
2021/09/02 09:04:58;;;;;;;;;29.00;26.75;;;;;;;;5020821;28;45470;-91
2021/09/02 09:07:30;;;;;;;;;37.25;31.25;;;;;;;;5000396;28;45859;-91
2021/09/02 09:09:55;;;;;;;;;33.00;28.50;;;;;;;;5006984;28;48442;-90
2021/09/02 09:12:40;;;;;;;;;35.75;29.50;;;;;;;;5022040;28;45437;-91
2021/09/02 09:15:06;;;;;;;;;27.75;26.00;;;;;;;;4997893;28;45415;-91
2021/09/02 09:17:32;;;;;;;;;32.50;26.75;;;;;;;;5007975;28;45455;-91
2021/09/02 09:19:57;;;;;;;;;25.50;22.00;;;;;;;;5018145;28;47048;-90
2021/09/02 09:22:24;;;;;;;;;26.75;25.50;;;;;;;;5020058;28;45442;-90
2021/09/02 09:24:50;;;;;;;;;33.75;29.00;;;;;;;;5018756;28;45684;-91
2021/09/02 09:27:16;;;;;;;;;29.25;26.25;;;;;;;;5017965;28;45623;-92
2021/09/02 09:29:42;;;;;;;;;31.75;23.50;;;;;;;;5019733;28;47570;-91
2021/09/02 09:32:11;;;;;;;;;26.75;24.00;;;;;;;;5021147;28;46361;-91
2021/09/02 09:34:36;;;;;;;;;28.50;23.50;;;;;;;;5011090;28;45808;-91
2021/09/02 09:37:08;;;;;;;;;26.50;24.75;;;;;;;;5018773;28;45716;-91
2021/09/02 09:39:37;;;;;;;;;30.25;21.25;;;;;;;;5019950;28;47570;-93
2021/09/02 09:42:03;;;;;;;;;30.00;23.00;;;;;;;;5017955;28;45779;-92
2021/09/02 09:44:29;;;;;;;;;21.50;18.25;;;;;;;;5015027;28;45391;-91
2021/09/02 09:47:00;;;;;;;;;21.75;20.25;;;;;;;;5017195;28;45549;-90
2021/09/02 09:49:25;;;;;;;;;23.75;20.25;;;;;;;;5018155;28;47361;-91
2021/09/02 09:51:51;;;;;;;;;25.00;20.50;;;;;;;;5013936;28;45447;-90
2021/09/02 09:54:24;;;;;;;;;21.00;19.00;;;;;;;;5014618;28;45400;-90
2021/09/02 09:56:49;;;;;;;;;22.75;20.00;;;;;;;;5014405;28;45390;-91
2021/09/02 09:59:15;;;;;;;;;23.25;20.50;;;;;;;;5015084;28;47198;-90
2021/09/02 10:01:40;;;;;;;;;22.67;21.00;;;;;;;;5017647;28;45390;-91
2021/09/02 10:04:05;;;;;;;;;19.75;18.50;;;;;;;;5021030;28;45308;-92
2021/09/02 10:06:32;;;;;;;;;22.33;21.67;;;;;;;;5018326;28;45457;-92
2021/09/02 10:08:57;;;;;;;;;22.75;22.50;;;;;;;;5017704;28;46400;-92
2021/09/02 10:11:23;;;;;;;;;24.33;19.00;;;;;;;;5021145;28;45551;-91
2021/09/02 10:13:49;;;;;;;;;22.75;19.00;;;;;;;;5020089;28;45445;-90
2021/09/02 10:16:14;;;;;;;;;21.25;19.00;;;;;;;;5019834;28;45431;-91
2021/09/02 10:18:41;;;;;;;;;19.00;18.50;;;;;;;;5019356;28;48184;-90
2021/09/02 10:21:08;;;;;;;;;22.75;19.25;;;;;;;;5017552;28;45608;-91
2021/09/02 10:23:33;;;;;;;;;18.25;17.50;;;;;;;;5022831;28;45384;-90
2021/09/02 10:25:59;;;;;;;;;21.50;18.50;;;;;;;;5019967;28;45383;-87
2021/09/02 10:28:34;;;;;;;;;23.75;21.00;;;;;;;;5020341;28;46224;-86
2021/09/02 10:31:01;;;;;;;;;22.25;20.75;;;;;;;;5028501;28;45372;-87
2021/09/02 10:33:32;;;;;;;;;26.50;21.75;;;;;;;;5033184;28;45444;-88
2021/09/02 10:35:57;;;;;;;;;22.25;21.00;;;;;;;;5026434;28;46068;-84
2021/09/02 10:38:34;;;;;;;;;21.75;18.25;;;;;;;;5030544;28;45293;-84
2021/09/02 10:40:59;;;;;;;;;17.50;14.75;;;;;;;;5015351;28;45533;-84
2021/09/02 10:43:44;;;;;;;;;19.67;18.67;;;;;;;;5016069;28;45451;-83
2021/09/02 10:46:22;;;;;;;;;20.75;19.25;;;;;;;;5015024;28;45562;-83
2021/09/02 10:48:47;;;;;;;;;23.75;20.25;;;;;;;;5015925;28;47038;-84
2021/09/02 10:51:31;;;;;;;;;19.00;17.25;;;;;;;;5009221;28;45451;-84
2021/09/02 10:54:00;;;;;;;;;22.25;17.75;;;;;;;;5015912;28;45494;-91
2021/09/02 10:56:30;;;;;;;;;19.00;17.75;;;;;;;;5015157;28;45828;-84
2021/09/02 10:58:55;;;;;;;;;21.25;19.50;;;;;;;;5017667;28;46307;-84
2021/09/02 11:01:21;;;;;;;;;23.25;19.00;;;;;;;;5016040;28;45506;-82
2021/09/02 11:03:46;;;;;;;;;21.25;18.25;;;;;;;;5014891;28;45565;-82
2021/09/02 11:06:12;;;;;;;;;27.50;21.75;;;;;;;;5012553;28;45427;-84
2021/09/02 11:08:37;;;;;;;;;23.50;19.75;;;;;;;;5016506;28;46416;-87
2021/09/02 11:11:13;;;;;;;;;19.25;18.00;;;;;;;;5013615;28;45866;-83
2021/09/02 11:13:39;;;;;;;;;17.75;15.50;;;;;;;;5016363;28;45488;-83
2021/09/02 11:16:08;;;;;;;;;18.75;15.75;;;;;;;;5016560;28;45386;-83
2021/09/02 11:18:44;;;;;;;;;19.75;16.00;;;;;;;;5012477;28;45644;-83
2021/09/02 11:21:16;;;;;;;;;18.25;14.75;;;;;;;;4992856;28;45331;-83
2021/09/02 11:23:46;;;;;;;;;12.50;12.50;;;;;;;;5015711;28;45471;-83
2021/09/02 11:26:12;;;;;;;;;15.50;15.50;;;;;;;;5014440;28;45521;-83
2021/09/02 11:28:47;;;;;;;;;14.25;13.25;;;;;;;;5015694;28;46513;-82
2021/09/02 11:31:13;;;;;;;;;15.00;14.00;;;;;;;;5015050;28;45552;-82
2021/09/02 11:33:45;;;;;;;;;15.75;13.75;;;;;;;;4998480;28;45560;-83
2021/09/02 11:36:10;;;;;;;;;13.00;12.00;;;;;;;;5008592;28;45503;-82
2021/09/02 11:38:36;;;;;;;;;17.67;15.67;;;;;;;;5016271;28;45452;-82
2021/09/02 11:41:22;;;;;;;;;13.75;13.25;;;;;;;;5003312;28;45368;-83
2021/09/02 11:43:48;;;;;;;;;11.50;11.50;;;;;;;;5001968;28;45619;-83
2021/09/02 11:46:15;;;;;;;;;11.75;11.50;;;;;;;;5014191;28;46253;-82
2021/09/02 11:48:44;;;;;;;;;16.50;13.25;;;;;;;;5012378;28;46255;-82
2021/09/02 11:51:09;;;;;;;;;12.75;12.75;;;;;;;;4992706;28;45664;-82
2021/09/02 11:53:34;;;;;;;;;14.75;13.25;;;;;;;;5009882;28;45467;-82
2021/09/02 11:56:13;;;;;;;;;13.33;13.33;;;;;;;;5013489;28;45463;-82
2021/09/02 11:58:39;;;;;;;;;12.25;10.75;;;;;;;;5014122;28;45411;-82
2021/09/02 12:01:04;;;;;;;;;13.25;11.00;;;;;;;;5017215;28;45328;-82
2021/09/02 12:03:29;;;;;;;;;17.33;11.33;;;;;;;;5013943;28;45337;-82
2021/09/02 12:05:56;;;;;;;;;14.00;13.75;;;;;;;;4999818;28;45527;-82
2021/09/02 12:08:21;;;;;;;;;14.25;12.25;;;;;;;;4996733;28;47178;-82
2021/09/02 12:10:47;;;;;;;;;12.75;11.75;;;;;;;;5012425;28;45388;-81
2021/09/02 12:13:39;;;;;;;;;16.67;13.67;;;;;;;;5016707;28;45512;-82
2021/09/02 12:16:09;;;;;;;;;12.50;12.50;;;;;;;;5012149;28;45348;-82
2021/09/02 12:18:35;;;;;;;;;10.25;10.25;;;;;;;;5014796;28;45571;-82
2021/09/02 12:21:14;;;;;;;;;11.00;10.25;;;;;;;;5014248;28;45427;-82
2021/09/02 12:23:49;;;;;;;;;13.75;12.75;;;;;;;;5020205;28;45507;-82
2021/09/02 12:26:15;;;;;;;;;16.50;12.75;;;;;;;;5020523;28;45552;-82
2021/09/02 12:28:42;;;;;;;;;12.50;11.75;;;;;;;;5017736;28;45434;-81
2021/09/02 12:31:15;;;;;;;;;11.25;11.25;;;;;;;;5000805;28;45386;-81
2021/09/02 12:33:55;;;;;;;;;12.00;10.00;;;;;;;;5009008;28;45521;-83
2021/09/02 12:36:21;;;;;;;;;14.00;9.75;;;;;;;;5013732;28;45459;-82
2021/09/02 12:38:46;;;;;;;;;13.00;12.75;;;;;;;;5018855;28;45439;-82
2021/09/02 12:41:12;;;;;;;;;8.50;8.50;;;;;;;;5016665;28;46042;-82
2021/09/02 12:43:37;;;;;;;;;12.00;10.25;;;;;;;;5003426;28;45443;-83
2021/09/02 12:46:03;;;;;;;;;9.75;9.75;;;;;;;;5016451;28;45509;-82
2021/09/02 12:48:28;;;;;;;;;18.33;13.33;;;;;;;;5020839;28;45630;-82
2021/09/02 12:50:55;;;;;;;;;15.67;11.00;;;;;;;;5001954;28;45426;-83
2021/09/02 12:53:20;;;;;;;;;12.00;10.25;;;;;;;;5019097;28;45384;-82
2021/09/02 12:55:45;;;;;;;;;12.00;12.00;;;;;;;;5019814;28;45495;-82
2021/09/02 12:58:10;;;;;;;;;17.33;14.00;;;;;;;;5001252;28;47933;-83
2021/09/02 13:00:38;;;;;;;;;15.67;12.67;;;;;;;;5001728;28;45256;-83
2021/09/02 13:03:07;;;;;;;;;14.25;13.00;;;;;;;;5015796;28;45696;-82
2021/09/02 13:05:33;;;;;;;;;12.00;12.00;;;;;;;;5019800;28;45395;-82
2021/09/02 13:07:59;;;;;;;;;10.00;9.75;;;;;;;;5016951;28;45494;-83
2021/09/02 13:10:34;;;;;;;;;13.50;13.00;;;;;;;;5017636;28;45508;-83
2021/09/02 13:13:00;;;;;;;;;15.25;12.25;;;;;;;;5016812;28;45960;-82
2021/09/02 13:15:26;;;;;;;;;14.00;10.25;;;;;;;;5020007;28;45254;-82
2021/09/02 13:17:52;;;;;;;;;10.00;10.00;;;;;;;;4998550;28;47651;-82
2021/09/02 13:20:17;;;;;;;;;14.75;12.25;;;;;;;;5022013;28;45360;-82
2021/09/02 13:22:43;;;;;;;;;12.75;11.75;;;;;;;;5019728;28;45327;-83
2021/09/02 13:25:10;;;;;;;;;11.00;9.50;;;;;;;;5032727;28;45276;-86
2021/09/02 13:27:35;;;;;;;;;11.00;8.75;;;;;;;;5034489;28;45463;-83
2021/09/02 13:30:01;;;;;;;;;14.25;11.75;;;;;;;;5032528;28;45386;-82
2021/09/02 13:32:26;;;;;;;;;16.00;11.00;;;;;;;;5020512;28;45505;-83
2021/09/02 13:34:51;;;;;;;;;12.00;10.50;;;;;;;;5018498;28;45571;-83
2021/09/02 13:37:16;;;;;;;;;13.25;12.00;;;;;;;;5000076;28;46133;-83
2021/09/02 13:39:42;;;;;;;;;9.75;9.75;;;;;;;;5020248;28;45374;-83
2021/09/02 13:42:07;;;;;;;;;13.25;11.50;;;;;;;;5013900;28;45411;-83
2021/09/02 13:44:33;;;;;;;;;11.50;11.00;;;;;;;;5006860;28;45567;-83
2021/09/02 13:46:58;;;;;;;;;17.00;11.00;;;;;;;;5019092;28;46027;-83
2021/09/02 13:49:23;;;;;;;;;13.25;12.00;;;;;;;;5003507;28;45243;-83
2021/09/02 13:51:50;;;;;;;;;11.67;11.33;;;;;;;;5017090;28;45368;-83
2021/09/02 13:54:16;;;;;;;;;12.00;11.00;;;;;;;;5018881;28;45274;-83
2021/09/02 13:56:42;;;;;;;;;11.75;11.75;;;;;;;;5011232;28;45290;-82
2021/09/02 13:59:07;;;;;;;;;11.00;9.50;;;;;;;;5010523;28;45388;-82
2021/09/02 14:01:32;;;;;;;;;14.00;10.67;;;;;;;;5019218;28;45297;-83
2021/09/02 14:03:57;;;;;;;;;13.00;10.33;;;;;;;;5014703;28;45356;-83
2021/09/02 14:06:22;;;;;;;;;13.00;12.00;;;;;;;;5019902;28;45292;-82
2021/09/02 14:08:48;;;;;;;;;13.25;9.75;;;;;;;;5016610;28;45508;-83
2021/09/02 14:11:14;;;;;;;;;12.00;11.50;;;;;;;;5002506;28;45456;-83
2021/09/02 14:13:40;;;;;;;;;10.50;9.75;;;;;;;;5017187;28;45470;-83